Time;durP1;ratioP1;P1;durP2;ratioP2;P2;SDS_P1;SDS_P2;PMS_P1;PMS_P2;Temp;Humidity;BMP_temperature;BMP_pressure;BME280_temperature;BME280_humidity;BME280_pressure;Samples;Min_cycle;Max_cycle;Signal;HPM_P1;HPM_P2
2022/05/07 00:02:03;;;;;;;2.58;1.50;;;;;;;;;;5050954;28;20191;-68
2022/05/07 00:04:28;;;;;;;2.38;1.50;;;;;;;;;;5050528;28;20477;-67
2022/05/07 00:06:54;;;;;;;3.15;1.60;;;;;;;;;;5050782;28;20021;-66
2022/05/07 00:09:20;;;;;;;3.30;1.60;;;;;;;;;;5050442;28;20025;-69
2022/05/07 00:11:47;;;;;;;3.90;2.13;;;;;;;;;;5050868;28;20451;-68
2022/05/07 00:14:13;;;;;;;3.33;1.70;;;;;;;;;;5050381;28;20538;-67
2022/05/07 00:19:22;;;;;;;3.45;1.80;;;;;;;;;;5050169;28;20032;-67
2022/05/07 00:21:48;;;;;;;3.03;1.60;;;;;;;;;;5050547;28;20029;-69
2022/05/07 00:24:13;;;;;;;3.40;1.70;;;;;;;;;;5050198;28;20075;-69
2022/05/07 00:26:38;;;;;;;3.65;1.70;;;;;;;;;;5050577;28;20025;-68
2022/05/07 00:29:04;;;;;;;3.40;1.77;;;;;;;;;;5050028;28;20199;-68
2022/05/07 00:31:29;;;;;;;2.67;1.45;;;;;;;;;;5050276;28;20546;-68
2022/05/07 00:33:55;;;;;;;3.60;1.50;;;;;;;;;;5049969;28;20029;-69
2022/05/07 00:36:20;;;;;;;4.03;1.60;;;;;;;;;;5050246;28;20272;-68
2022/05/07 00:38:46;;;;;;;3.33;1.70;;;;;;;;;;5049776;28;20477;-68
2022/05/07 00:41:11;;;;;;;3.88;1.80;;;;;;;;;;5050115;28;20028;-69
2022/05/07 00:43:40;;;;;;;4.35;1.83;;;;;;;;;;5050276;28;20036;-67
2022/05/07 00:46:06;;;;;;;2.90;1.70;;;;;;;;;;5050036;28;20032;-68
2022/05/07 00:48:32;;;;;;;2.88;1.73;;;;;;;;;;5049009;28;20024;-67
2022/05/07 00:53:42;;;;;;;3.10;1.77;;;;;;;;;;5049787;28;20047;-67
2022/05/07 00:56:08;;;;;;;5.60;1.80;;;;;;;;;;5050028;28;20021;-68
2022/05/07 00:58:38;;;;;;;2.83;1.70;;;;;;;;;;5050055;28;20036;-66
2022/05/07 01:01:03;;;;;;;3.83;1.97;;;;;;;;;;5049716;28;20060;-68
2022/05/07 01:03:29;;;;;;;4.68;1.92;;;;;;;;;;5050221;28;20061;-67
2022/05/07 01:05:54;;;;;;;3.53;2.00;;;;;;;;;;5032146;28;20064;-68
2022/05/07 01:08:20;;;;;;;4.22;1.90;;;;;;;;;;5049705;28;20025;-68
2022/05/07 01:10:47;;;;;;;6.35;1.90;;;;;;;;;;5049652;28;20116;-69
2022/05/07 01:13:12;;;;;;;3.22;1.80;;;;;;;;;;5049825;28;20516;-68
2022/05/07 01:15:48;;;;;;;4.28;1.90;;;;;;;;;;5049381;28;20121;-68
2022/05/07 01:18:15;;;;;;;4.03;2.00;;;;;;;;;;5049695;28;20025;-69
2022/05/07 01:20:41;;;;;;;3.80;1.88;;;;;;;;;;5049541;28;20396;-68
2022/05/07 01:23:08;;;;;;;4.82;1.90;;;;;;;;;;5050096;28;20475;-68
2022/05/07 01:25:33;;;;;;;4.13;1.95;;;;;;;;;;5049383;28;20036;-68
2022/05/07 01:27:59;;;;;;;4.45;2.03;;;;;;;;;;5049546;28;20033;-68
2022/05/07 01:30:24;;;;;;;5.35;1.92;;;;;;;;;;5049126;28;20202;-67
2022/05/07 01:32:50;;;;;;;3.38;1.90;;;;;;;;;;5049690;28;20055;-67
2022/05/07 01:35:16;;;;;;;4.70;1.92;;;;;;;;;;5049570;28;20106;-67
2022/05/07 01:37:41;;;;;;;4.82;2.03;;;;;;;;;;5049743;28;20055;-67
2022/05/07 01:40:07;;;;;;;4.57;1.77;;;;;;;;;;5049199;28;20076;-70
2022/05/07 01:42:33;;;;;;;4.80;2.05;;;;;;;;;;5049376;28;20041;-69
2022/05/07 01:44:58;;;;;;;5.35;2.33;;;;;;;;;;5049139;28;20098;-68
2022/05/07 01:48:24;;;;;;;3.63;2.00;;;;;;;;;;5049556;28;20071;-67
2022/05/07 01:50:19;;;;;;;3.95;2.08;;;;;;;;;;5035606;28;20121;-68
2022/05/07 01:52:44;;;;;;;3.58;1.92;;;;;;;;;;5049526;28;20451;-69
2022/05/07 01:55:09;;;;;;;3.80;2.13;;;;;;;;;;5049160;28;20528;-69
2022/05/07 01:57:35;;;;;;;3.38;2.10;;;;;;;;;;5049603;28;20021;-67
2022/05/07 02:00:00;;;;;;;3.42;2.03;;;;;;;;;;5049937;28;20024;-67
2022/05/07 02:02:26;;;;;;;6.22;2.08;;;;;;;;;;5053558;28;20021;-69
2022/05/07 02:04:52;;;;;;;4.93;2.40;;;;;;;;;;5052874;28;20041;-68
2022/05/07 02:07:17;;;;;;;4.05;1.98;;;;;;;;;;5053119;28;20390;-69
2022/05/07 02:09:42;;;;;;;4.43;2.20;;;;;;;;;;5052518;28;20443;-68
2022/05/07 02:12:08;;;;;;;4.88;2.15;;;;;;;;;;5053059;28;20047;-68
2022/05/07 02:14:35;;;;;;;6.00;2.30;;;;;;;;;;5034886;28;20116;-67
2022/05/07 02:17:00;;;;;;;4.68;2.00;;;;;;;;;;5053143;28;20063;-68
2022/05/07 02:19:25;;;;;;;4.50;2.00;;;;;;;;;;5052299;28;20044;-67
2022/05/07 02:21:51;;;;;;;5.88;2.10;;;;;;;;;;5052573;28;20457;-68
2022/05/07 02:24:17;;;;;;;3.13;1.98;;;;;;;;;;5052657;28;20078;-68
2022/05/07 02:26:42;;;;;;;5.45;1.90;;;;;;;;;;5052468;28;20029;-68
2022/05/07 02:29:09;;;;;;;3.75;1.98;;;;;;;;;;5052729;28;20083;-69
2022/05/07 02:31:35;;;;;;;4.68;1.88;;;;;;;;;;5052787;28;20423;-68
2022/05/07 02:34:00;;;;;;;3.83;1.73;;;;;;;;;;5052729;28;20617;-68
2022/05/07 02:36:26;;;;;;;4.50;2.00;;;;;;;;;;5052133;28;20028;-69
2022/05/07 02:38:51;;;;;;;4.20;1.95;;;;;;;;;;5052234;28;20025;-69
2022/05/07 02:44:02;;;;;;;5.80;2.17;;;;;;;;;;5052430;28;20126;-68
2022/05/07 02:46:27;;;;;;;3.08;1.80;;;;;;;;;;5052140;28;20107;-67
2022/05/07 02:48:53;;;;;;;3.72;2.00;;;;;;;;;;5052458;28;20033;-68
2022/05/07 02:51:18;;;;;;;4.68;1.90;;;;;;;;;;5051780;28;20021;-68
2022/05/07 02:53:44;;;;;;;2.88;1.83;;;;;;;;;;5052336;28;20033;-69
2022/05/07 02:56:09;;;;;;;3.22;2.10;;;;;;;;;;5051830;28;20461;-69
2022/05/07 02:58:34;;;;;;;3.30;1.85;;;;;;;;;;5052161;28;20447;-69
2022/05/07 03:01:00;;;;;;;4.05;2.28;;;;;;;;;;5051705;28;20017;-69
2022/05/07 03:03:26;;;;;;;2.83;1.80;;;;;;;;;;5052465;28;20418;-69
2022/05/07 03:05:52;;;;;;;6.80;2.05;;;;;;;;;;5051755;28;20477;-69
2022/05/07 03:08:17;;;;;;;3.78;1.90;;;;;;;;;;5051941;28;20399;-68
2022/05/07 03:10:43;;;;;;;4.80;1.90;;;;;;;;;;5051314;28;20511;-68
2022/05/07 03:13:08;;;;;;;6.15;2.17;;;;;;;;;;5051209;28;20032;-68
2022/05/07 03:15:34;;;;;;;4.43;1.92;;;;;;;;;;5051494;28;20041;-67
2022/05/07 03:17:59;;;;;;;3.22;1.92;;;;;;;;;;5051916;28;20057;-68
2022/05/07 03:20:24;;;;;;;3.38;1.88;;;;;;;;;;5051318;28;20051;-67
2022/05/07 03:22:50;;;;;;;3.47;2.05;;;;;;;;;;5051717;28;20025;-67
2022/05/07 03:25:15;;;;;;;4.03;2.10;;;;;;;;;;5051333;28;20032;-67
2022/05/07 03:27:41;;;;;;;5.32;2.05;;;;;;;;;;5051588;28;20480;-69
2022/05/07 03:30:07;;;;;;;3.40;1.90;;;;;;;;;;5051103;28;20457;-68
2022/05/07 03:32:34;;;;;;;3.92;1.90;;;;;;;;;;5051378;28;20028;-68
2022/05/07 03:34:59;;;;;;;3.67;1.90;;;;;;;;;;5051400;28;20036;-68
2022/05/07 03:37:25;;;;;;;3.20;1.80;;;;;;;;;;5051468;28;20033;-68
2022/05/07 03:39:51;;;;;;;3.17;1.90;;;;;;;;;;5051423;28;20025;-69
2022/05/07 03:42:17;;;;;;;3.30;2.05;;;;;;;;;;5050878;28;20521;-68
2022/05/07 03:44:43;;;;;;;3.95;2.15;;;;;;;;;;5051051;28;20111;-70
2022/05/07 03:47:08;;;;;;;3.60;1.80;;;;;;;;;;5050838;28;20044;-68
2022/05/07 03:49:34;;;;;;;4.68;1.90;;;;;;;;;;5050896;28;20503;-69
2022/05/07 03:54:44;;;;;;;3.95;1.88;;;;;;;;;;5051110;28;20036;-69
2022/05/07 03:57:13;;;;;;;3.70;1.98;;;;;;;;;;5050914;28;20021;-68
2022/05/07 03:59:39;;;;;;;4.22;1.92;;;;;;;;;;5050672;28;20021;-68
2022/05/07 04:02:04;;;;;;;6.97;2.20;;;;;;;;;;5051031;28;20032;-68
2022/05/07 04:04:29;;;;;;;3.28;1.80;;;;;;;;;;5050681;28;20060;-68
2022/05/07 04:06:55;;;;;;;2.67;1.83;;;;;;;;;;5050516;28;20400;-69
2022/05/07 04:09:20;;;;;;;3.72;2.10;;;;;;;;;;5050816;28;20079;-66
2022/05/07 04:11:46;;;;;;;4.53;2.30;;;;;;;;;;5050485;28;20021;-69
2022/05/07 04:14:11;;;;;;;3.35;2.00;;;;;;;;;;5050757;28;20158;-67
2022/05/07 04:16:36;;;;;;;2.70;1.80;;;;;;;;;;5050309;28;20031;-67
2022/05/07 04:19:02;;;;;;;3.42;2.00;;;;;;;;;;5050482;28;20400;-67
2022/05/07 04:21:27;;;;;;;3.50;1.88;;;;;;;;;;5050246;28;20496;-68
2022/05/07 04:23:53;;;;;;;3.35;1.90;;;;;;;;;;5049728;28;20441;-69
2022/05/07 04:26:18;;;;;;;6.13;1.92;;;;;;;;;;5050215;28;20040;-67
2022/05/07 04:28:44;;;;;;;3.00;1.73;;;;;;;;;;5050551;28;20025;-69
2022/05/07 04:31:09;;;;;;;5.22;1.90;;;;;;;;;;5049843;28;20055;-67
2022/05/07 04:33:34;;;;;;;3.17;1.83;;;;;;;;;;5050450;28;20057;-67
2022/05/07 04:36:00;;;;;;;3.67;1.90;;;;;;;;;;5050281;28;20025;-69
2022/05/07 04:38:26;;;;;;;6.90;1.80;;;;;;;;;;5050085;28;20043;-68
2022/05/07 04:40:53;;;;;;;3.42;1.75;;;;;;;;;;5050352;28;20328;-68
2022/05/07 04:43:21;;;;;;;2.65;1.90;;;;;;;;;;5049892;28;20511;-68
2022/05/07 04:45:47;;;;;;;4.38;1.85;;;;;;;;;;5050555;28;20029;-68
2022/05/07 04:48:12;;;;;;;2.55;1.83;;;;;;;;;;5050064;28;20076;-69
2022/05/07 04:50:37;;;;;;;5.85;1.85;;;;;;;;;;5050204;28;20480;-68
2022/05/07 04:53:04;;;;;;;3.70;2.30;;;;;;;;;;5049774;28;20037;-69
2022/05/07 04:55:30;;;;;;;5.03;1.75;;;;;;;;;;5049828;28;20028;-68
2022/05/07 04:57:55;;;;;;;4.35;1.98;;;;;;;;;;5049721;28;20028;-69
2022/05/07 05:00:22;;;;;;;4.10;1.92;;;;;;;;;;5049764;28;20032;-69
2022/05/07 05:02:47;;;;;;;4.35;1.88;;;;;;;;;;5049674;28;20492;-68
2022/05/07 05:05:13;;;;;;;6.47;2.03;;;;;;;;;;5050233;28;20025;-69
2022/05/07 05:07:39;;;;;;;3.70;1.98;;;;;;;;;;5049828;28;20665;-68
2022/05/07 05:10:04;;;;;;;6.32;1.95;;;;;;;;;;5049654;28;20019;-67
2022/05/07 05:12:30;;;;;;;3.42;1.70;;;;;;;;;;5049568;28;20386;-71
2022/05/07 05:15:01;;;;;;;6.97;2.25;;;;;;;;;;5049466;28;20032;-67
2022/05/07 05:17:28;;;;;;;5.20;2.17;;;;;;;;;;5049908;28;20036;-68
2022/05/07 05:19:54;;;;;;;4.97;2.03;;;;;;;;;;5049695;28;20029;-67
2022/05/07 05:22:19;;;;;;;5.03;2.00;;;;;;;;;;5049634;28;20043;-67
2022/05/07 05:24:45;;;;;;;3.30;1.95;;;;;;;;;;5049999;28;20035;-68
2022/05/07 05:27:11;;;;;;;6.13;2.03;;;;;;;;;;5049358;28;20029;-67
2022/05/07 05:29:36;;;;;;;5.43;1.92;;;;;;;;;;5049566;28;20025;-67
2022/05/07 05:32:02;;;;;;;6.20;2.17;;;;;;;;;;5049161;28;20040;-67
2022/05/07 05:34:27;;;;;;;5.70;1.80;;;;;;;;;;5050012;28;20064;-68
2022/05/07 05:36:53;;;;;;;4.93;2.00;;;;;;;;;;5053418;28;20031;-67
2022/05/07 05:39:18;;;;;;;5.65;2.30;;;;;;;;;;5035946;28;20031;-69
2022/05/07 05:41:44;;;;;;;2.95;1.90;;;;;;;;;;5053424;28;20048;-73
2022/05/07 05:44:15;;;;;;;3.17;1.80;;;;;;;;;;5053342;28;20216;-68
2022/05/07 05:46:40;;;;;;;5.80;2.05;;;;;;;;;;5053327;28;20473;-69
2022/05/07 05:49:06;;;;;;;4.55;2.03;;;;;;;;;;5053515;28;20071;-72
2022/05/07 05:51:31;;;;;;;8.48;1.85;;;;;;;;;;5053050;28;20021;-68
2022/05/07 05:53:57;;;;;;;2.92;1.70;;;;;;;;;;5053449;28;20029;-67
2022/05/07 05:56:22;;;;;;;3.15;1.75;;;;;;;;;;5053357;28;20419;-67
2022/05/07 05:58:48;;;;;;;5.20;1.92;;;;;;;;;;5052975;28;20029;-68
2022/05/07 06:01:13;;;;;;;3.13;1.83;;;;;;;;;;5052860;28;20029;-68
2022/05/07 06:03:39;;;;;;;3.67;2.03;;;;;;;;;;5052894;28;20521;-67
2022/05/07 06:06:04;;;;;;;3.17;1.92;;;;;;;;;;5052899;28;20086;-67
2022/05/07 06:08:30;;;;;;;3.50;1.80;;;;;;;;;;5052915;28;20032;-67
2022/05/07 06:10:57;;;;;;;4.45;1.92;;;;;;;;;;5052873;28;20029;-67
2022/05/07 06:13:24;;;;;;;10.68;2.40;;;;;;;;;;5052669;28;20057;-67
2022/05/07 06:15:52;;;;;;;4.22;2.20;;;;;;;;;;5052884;28;20032;-71
2022/05/07 06:18:19;;;;;;;6.43;2.15;;;;;;;;;;5052588;28;20535;-71
2022/05/07 06:20:44;;;;;;;6.40;2.10;;;;;;;;;;5052599;28;20075;-67
2022/05/07 06:23:10;;;;;;;5.75;1.95;;;;;;;;;;5052749;28;20025;-67
2022/05/07 06:28:22;;;;;;;4.03;1.98;;;;;;;;;;5052663;28;20107;-67
2022/05/07 06:30:48;;;;;;;3.15;1.75;;;;;;;;;;5052568;28;20079;-66
2022/05/07 06:33:14;;;;;;;2.92;1.60;;;;;;;;;;5052732;28;20082;-67
2022/05/07 06:35:39;;;;;;;5.93;1.90;;;;;;;;;;5052439;28;20021;-67
2022/05/07 06:38:05;;;;;;;5.70;1.60;;;;;;;;;;5052316;28;20021;-67
2022/05/07 06:40:31;;;;;;;5.18;1.40;;;;;;;;;;5052699;28;20171;-67
2022/05/07 06:42:56;;;;;;;2.45;1.30;;;;;;;;;;5051961;28;20052;-66
2022/05/07 06:45:21;;;;;;;4.53;1.30;;;;;;;;;;5052210;28;20025;-67
2022/05/07 06:47:48;;;;;;;2.75;1.40;;;;;;;;;;5051028;28;20045;-67
2022/05/07 06:50:13;;;;;;;2.97;1.30;;;;;;;;;;5052112;28;20028;-66
2022/05/07 06:52:46;;;;;;;2.63;1.20;;;;;;;;;;5051694;28;20473;-70
2022/05/07 06:55:16;;;;;;;2.95;1.10;;;;;;;;;;5051987;28;20439;-69
2022/05/07 06:57:42;;;;;;;3.00;1.55;;;;;;;;;;5051823;28;20559;-67
2022/05/07 07:00:09;;;;;;;3.20;1.35;;;;;;;;;;5051665;28;20477;-67
2022/05/07 07:02:35;;;;;;;3.08;1.50;;;;;;;;;;5051640;28;20075;-69
2022/05/07 07:05:02;;;;;;;5.55;1.50;;;;;;;;;;5051657;28;20033;-67
2022/05/07 07:07:27;;;;;;;4.65;1.60;;;;;;;;;;5051670;28;20448;-68
2022/05/07 07:09:53;;;;;;;2.83;1.40;;;;;;;;;;5051615;28;20056;-72
2022/05/07 07:12:20;;;;;;;5.07;1.40;;;;;;;;;;5051538;28;20103;-72
2022/05/07 07:14:47;;;;;;;4.75;1.60;;;;;;;;;;5051518;28;20086;-73
2022/05/07 07:17:13;;;;;;;2.70;1.50;;;;;;;;;;5051479;28;20029;-71
2022/05/07 07:19:41;;;;;;;6.15;1.85;;;;;;;;;;5052176;28;20033;-73
2022/05/07 07:22:07;;;;;;;5.38;1.83;;;;;;;;;;5051406;28;20063;-72
2022/05/07 07:24:32;;;;;;;4.88;1.70;;;;;;;;;;5051415;28;20040;-72
2022/05/07 07:26:58;;;;;;;5.88;1.83;;;;;;;;;;5051421;28;20039;-72
2022/05/07 07:29:23;;;;;;;2.67;1.50;;;;;;;;;;5051136;28;20028;-72
2022/05/07 07:31:49;;;;;;;2.50;1.70;;;;;;;;;;5051139;28;20024;-72
2022/05/07 07:34:15;;;;;;;3.40;1.50;;;;;;;;;;5051276;28;20032;-72
2022/05/07 07:36:44;;;;;;;4.47;1.60;;;;;;;;;;5051418;28;20362;-73
2022/05/07 07:39:10;;;;;;;4.97;1.90;;;;;;;;;;5051121;28;20021;-72
2022/05/07 07:41:35;;;;;;;3.25;1.60;;;;;;;;;;5051145;28;20045;-73
2022/05/07 07:44:01;;;;;;;4.13;1.25;;;;;;;;;;5048606;28;20033;-73
2022/05/07 07:49:11;;;;;;;1.85;1.20;;;;;;;;;;5047776;28;20051;-72
2022/05/07 07:51:36;;;;;;;2.72;1.27;;;;;;;;;;5049667;28;20021;-73
2022/05/07 07:54:02;;;;;;;2.17;1.30;;;;;;;;;;5048010;28;20182;-70
2022/05/07 07:56:28;;;;;;;2.25;1.38;;;;;;;;;;5030551;28;20378;-73
2022/05/07 07:58:53;;;;;;;2.92;1.50;;;;;;;;;;5049582;28;20499;-75
2022/05/07 08:01:19;;;;;;;2.33;1.30;;;;;;;;;;5049207;28;20029;-72
2022/05/07 08:03:44;;;;;;;5.07;1.58;;;;;;;;;;5056932;28;20040;-71
2022/05/07 08:06:10;;;;;;;7.93;1.60;;;;;;;;;;5049535;28;20029;-73
2022/05/07 08:14:03;;;;;;;3.10;1.58;;;;;;;;;;5049836;28;20055;-73
2022/05/07 08:16:28;;;;;;;4.28;1.70;;;;;;;;;;5046311;28;20029;-72
2022/05/07 08:18:54;;;;;;;2.90;1.67;;;;;;;;;;5039297;28;20028;-72
2022/05/07 08:21:20;;;;;;;7.22;1.90;;;;;;;;;;5049465;28;20036;-71
2022/05/07 08:23:45;;;;;;;4.93;1.60;;;;;;;;;;5048766;28;20029;-70
2022/05/07 08:26:11;;;;;;;4.00;1.95;;;;;;;;;;5049361;28;20436;-74
2022/05/07 08:28:38;;;;;;;4.57;1.60;;;;;;;;;;5048799;28;20013;-71
2022/05/07 08:31:04;;;;;;;3.88;1.90;;;;;;;;;;5048069;28;20070;-72
2022/05/07 08:33:33;;;;;;;2.55;1.60;;;;;;;;;;5055807;28;20420;-70
2022/05/07 08:35:59;;;;;;;3.80;1.70;;;;;;;;;;5067485;28;20154;-69
2022/05/07 08:38:25;;;;;;;4.60;1.50;;;;;;;;;;5061178;28;20103;-73
2022/05/07 08:40:51;;;;;;;4.68;2.03;;;;;;;;;;5053309;28;20020;-70
2022/05/07 08:43:16;;;;;;;2.75;1.60;;;;;;;;;;5066748;28;20055;-72
2022/05/07 08:45:43;;;;;;;4.22;1.67;;;;;;;;;;5065691;28;20021;-74
2022/05/07 08:48:09;;;;;;;3.40;1.55;;;;;;;;;;5036943;28;20489;-73
2022/05/07 08:50:34;;;;;;;6.15;2.05;;;;;;;;;;5029521;28;20069;-73
2022/05/07 08:53:01;;;;;;;3.22;1.65;;;;;;;;;;5029081;28;20033;-71
2022/05/07 08:55:26;;;;;;;4.25;1.85;;;;;;;;;;5054736;28;20024;-69
2022/05/07 08:57:53;;;;;;;4.03;1.95;;;;;;;;;;5051864;28;20500;-74
2022/05/07 09:00:21;;;;;;;3.08;1.60;;;;;;;;;;5048301;28;20102;-77
2022/05/07 09:02:58;;;;;;;5.75;2.05;;;;;;;;;;5048085;28;20025;-77
2022/05/07 09:05:35;;;;;;;3.33;1.33;;;;;;;;;;5048882;28;20032;-72
2022/05/07 09:08:02;;;;;;;3.17;1.45;;;;;;;;;;5048886;28;20032;-73
2022/05/07 09:10:31;;;;;;;3.25;1.50;;;;;;;;;;5029934;28;20056;-72
2022/05/07 09:13:17;;;;;;;2.63;1.23;;;;;;;;;;5048587;28;20358;-74
2022/05/07 09:15:54;;;;;;;3.80;1.45;;;;;;;;;;5048632;28;20079;-72
2022/05/07 09:18:21;;;;;;;2.55;1.30;;;;;;;;;;5048748;28;20055;-76
2022/05/07 09:24:08;;;;;;;4.63;1.40;;;;;;;;;;5048252;28;20028;-71
2022/05/07 09:26:38;;;;;;;2.38;1.30;;;;;;;;;;5047702;28;20049;-76
2022/05/07 09:29:07;;;;;;;2.80;1.38;;;;;;;;;;5048540;28;20021;-75
2022/05/07 09:31:34;;;;;;;4.38;2.35;;;;;;;;;;5047693;28;20078;-72
2022/05/07 09:36:53;;;;;;;3.03;1.50;;;;;;;;;;5048284;28;20504;-77
2022/05/07 09:39:18;;;;;;;3.50;1.50;;;;;;;;;;5047048;28;20021;-72
2022/05/07 09:41:44;;;;;;;2.72;1.40;;;;;;;;;;5048297;28;20045;-72
2022/05/07 09:44:12;;;;;;;2.72;1.48;;;;;;;;;;5047912;28;20021;-73
2022/05/07 09:46:39;;;;;;;3.65;1.55;;;;;;;;;;5048093;28;20664;-72
2022/05/07 09:49:08;;;;;;;4.00;1.67;;;;;;;;;;5048103;28;20029;-71
2022/05/07 09:51:33;;;;;;;3.45;1.42;;;;;;;;;;5048308;28;20121;-71
2022/05/07 09:59:28;;;;;;;3.78;1.70;;;;;;;;;;5038004;28;20043;-76
2022/05/07 10:02:05;;;;;;;3.53;1.40;;;;;;;;;;5048789;28;20432;-75
2022/05/07 10:04:45;;;;;;;3.03;1.35;;;;;;;;;;5048047;28;20029;-78
2022/05/07 10:07:19;;;;;;;2.00;1.50;;;;;;;;;;5043402;28;20039;-75
2022/05/07 10:10:15;;;;;;;3.03;1.40;;;;;;;;;;5051781;28;20039;-72
2022/05/07 10:12:45;;;;;;;3.92;1.50;;;;;;;;;;5046885;28;20025;-70
2022/05/07 10:15:15;;;;;;;3.53;1.75;;;;;;;;;;5047507;28;20328;-70
2022/05/07 10:17:41;;;;;;;4.32;1.45;;;;;;;;;;5045994;28;20049;-74
2022/05/07 10:20:09;;;;;;;3.30;1.40;;;;;;;;;;5046704;28;20048;-73
2022/05/07 10:22:36;;;;;;;2.70;1.30;;;;;;;;;;5050294;28;20028;-73
2022/05/07 10:25:11;;;;;;;2.90;1.30;;;;;;;;;;5051093;28;20029;-72
2022/05/07 10:27:44;;;;;;;3.17;1.48;;;;;;;;;;5051907;28;20025;-72
2022/05/07 10:30:17;;;;;;;2.10;1.15;;;;;;;;;;5051712;28;20024;-71
2022/05/07 10:32:49;;;;;;;4.20;1.50;;;;;;;;;;5051925;28;20032;-71
2022/05/07 10:35:14;;;;;;;3.25;1.48;;;;;;;;;;5051484;28;20025;-71
2022/05/07 10:37:43;;;;;;;2.42;1.45;;;;;;;;;;5051799;28;20028;-72
2022/05/07 10:40:12;;;;;;;2.58;1.30;;;;;;;;;;5051274;28;20029;-72
2022/05/07 10:42:39;;;;;;;2.78;1.10;;;;;;;;;;5051266;28;20068;-72
2022/05/07 10:45:22;;;;;;;1.90;1.20;;;;;;;;;;5050885;28;20036;-72
2022/05/07 10:47:54;;;;;;;2.90;1.20;;;;;;;;;;5051545;28;20048;-72
2022/05/07 10:50:21;;;;;;;2.42;1.33;;;;;;;;;;5051529;28;20021;-73
2022/05/07 10:52:54;;;;;;;2.13;1.23;;;;;;;;;;5051477;28;20089;-72
2022/05/07 10:55:25;;;;;;;3.70;1.17;;;;;;;;;;5051116;28;20473;-73
2022/05/07 10:57:51;;;;;;;2.10;1.13;;;;;;;;;;5051332;28;20029;-73
2022/05/07 11:00:21;;;;;;;1.70;1.00;;;;;;;;;;5050960;28;20025;-73
2022/05/07 11:02:48;;;;;;;3.28;1.40;;;;;;;;;;5051358;28;20025;-69
2022/05/07 11:05:15;;;;;;;2.13;1.02;;;;;;;;;;5050932;28;20037;-72
2022/05/07 11:07:41;;;;;;;2.05;1.17;;;;;;;;;;5051314;28;20040;-72
2022/05/07 11:10:07;;;;;;;2.67;1.10;;;;;;;;;;5051453;28;20106;-68
2022/05/07 11:12:35;;;;;;;2.35;1.20;;;;;;;;;;5050913;28;20147;-70
2022/05/07 11:15:02;;;;;;;2.30;1.10;;;;;;;;;;5050484;28;20457;-71
2022/05/07 11:17:33;;;;;;;2.55;1.40;;;;;;;;;;5050473;28;20033;-73
2022/05/07 11:19:58;;;;;;;;;;;;;;;;;;5051328;28;20040;-74
2022/05/07 11:22:29;;;;;;;4.95;1.15;;;;;;;;;;5050784;28;19916;-71
2022/05/07 11:24:58;;;;;;;4.63;1.30;;;;;;;;;;5050716;28;20025;-74
2022/05/07 11:27:29;;;;;;;4.05;1.00;;;;;;;;;;5050497;28;20037;-69
2022/05/07 11:29:55;;;;;;;2.10;0.77;;;;;;;;;;5050651;28;20021;-69
2022/05/07 11:32:21;;;;;;;2.22;1.00;;;;;;;;;;5050007;28;20499;-70
2022/05/07 11:34:46;;;;;;;2.28;1.13;;;;;;;;;;5050276;28;20067;-69
2022/05/07 11:37:16;;;;;;;3.65;1.13;;;;;;;;;;5050469;28;20021;-73
2022/05/07 11:39:56;;;;;;;1.43;0.90;;;;;;;;;;5050611;28;20524;-71
2022/05/07 11:42:31;;;;;;;1.85;1.00;;;;;;;;;;5050378;28;20292;-74
2022/05/07 11:48:04;;;;;;;1.85;1.00;;;;;;;;;;5050747;28;20422;-68
2022/05/07 11:50:39;;;;;;;4.85;1.35;;;;;;;;;;5050230;28;20399;-72
2022/05/07 11:53:20;;;;;;;2.70;1.10;;;;;;;;;;5049619;28;20104;-74
2022/05/07 11:55:46;;;;;;;;;;;;;;;;;;5050404;28;20059;-73
2022/05/07 11:58:20;;;;;;;1.90;1.10;;;;;;;;;;5050381;28;19909;-73
2022/05/07 12:00:48;;;;;;;2.78;1.10;;;;;;;;;;5049862;28;20021;-69
2022/05/07 12:03:23;;;;;;;2.65;1.20;;;;;;;;;;5049682;28;20055;-70
2022/05/07 12:05:50;;;;;;;3.58;1.10;;;;;;;;;;5049811;28;20037;-72
2022/05/07 12:08:17;;;;;;;3.80;1.20;;;;;;;;;;5049720;28;20131;-72
2022/05/07 12:10:44;;;;;;;1.52;1.00;;;;;;;;;;5050027;28;20033;-73
2022/05/07 12:13:10;;;;;;;3.08;1.10;;;;;;;;;;5050046;28;20040;-72
2022/05/07 12:18:23;;;;;;;2.47;1.25;;;;;;;;;;5050010;28;20032;-73
2022/05/07 12:20:48;;;;;;;3.65;1.20;;;;;;;;;;5049978;28;20036;-73
2022/05/07 12:31:27;;;;;;;4.05;1.50;;;;;;;;;;5049332;28;20033;-73
2022/05/07 12:33:53;;;;;;;2.88;1.20;;;;;;;;;;5049547;28;20025;-73
2022/05/07 12:36:19;;;;;;;1.67;1.00;;;;;;;;;;5049522;28;20032;-72
2022/05/07 12:38:44;;;;;;;4.47;1.10;;;;;;;;;;5049863;28;20399;-71
2022/05/07 12:41:09;;;;;;;2.10;1.10;;;;;;;;;;5049131;28;20025;-73
2022/05/07 12:43:35;;;;;;;4.45;1.50;;;;;;;;;;5049522;28;20024;-74
2022/05/07 12:46:01;;;;;;;1.88;1.17;;;;;;;;;;5048370;28;20025;-72
2022/05/07 12:48:27;;;;;;;3.28;1.20;;;;;;;;;;5049311;28;20116;-72
2022/05/07 12:50:52;;;;;;;2.00;1.30;;;;;;;;;;5050004;28;20124;-75
2022/05/07 12:53:18;;;;;;;1.85;1.10;;;;;;;;;;5048908;28;20400;-69
2022/05/07 12:55:44;;;;;;;2.53;1.27;;;;;;;;;;5049036;28;20024;-71
2022/05/07 12:58:11;;;;;;;4.78;1.25;;;;;;;;;;5049117;28;20041;-73
2022/05/07 13:00:37;;;;;;;3.03;1.20;;;;;;;;;;5053136;28;20476;-71
2022/05/07 13:03:03;;;;;;;2.17;1.20;;;;;;;;;;5065447;28;20509;-69
2022/05/07 13:05:30;;;;;;;1.90;1.20;;;;;;;;;;5050229;28;20539;-69
2022/05/07 13:07:56;;;;;;;2.70;1.23;;;;;;;;;;5045090;28;20029;-72
2022/05/07 13:10:22;;;;;;;2.63;1.20;;;;;;;;;;5051168;28;20087;-71
2022/05/07 13:12:48;;;;;;;3.45;1.20;;;;;;;;;;5050004;28;20039;-71
2022/05/07 13:15:14;;;;;;;1.50;1.10;;;;;;;;;;5048779;28;20067;-72
2022/05/07 13:17:40;;;;;;;1.90;1.05;;;;;;;;;;5048740;28;20048;-73
2022/05/07 13:20:06;;;;;;;2.30;1.15;;;;;;;;;;5049804;28;20025;-71
2022/05/07 13:22:35;;;;;;;2.30;1.23;;;;;;;;;;5049566;28;20484;-72
2022/05/07 13:25:00;;;;;;;2.85;1.45;;;;;;;;;;5049452;28;20055;-72
2022/05/07 13:27:27;;;;;;;1.92;1.00;;;;;;;;;;5049502;28;20021;-71
2022/05/07 13:29:52;;;;;;;2.33;1.23;;;;;;;;;;5049522;28;20021;-71
2022/05/07 13:32:18;;;;;;;4.63;1.40;;;;;;;;;;5049127;28;20396;-71
2022/05/07 13:34:44;;;;;;;2.72;0.90;;;;;;;;;;5049518;28;20021;-72
2022/05/07 13:37:11;;;;;;;1.48;1.00;;;;;;;;;;5049527;28;20017;-72
2022/05/07 13:39:36;;;;;;;4.13;1.20;;;;;;;;;;5049855;28;20068;-70
2022/05/07 13:42:02;;;;;;;2.17;1.05;;;;;;;;;;5049463;28;20496;-72
2022/05/07 13:44:28;;;;;;;2.92;1.00;;;;;;;;;;5049201;28;20112;-73
2022/05/07 13:46:53;;;;;;;1.95;1.02;;;;;;;;;;5049495;28;20405;-72
2022/05/07 13:49:19;;;;;;;2.60;1.00;;;;;;;;;;5049247;28;20397;-73
2022/05/07 13:51:44;;;;;;;3.88;1.00;;;;;;;;;;5049226;28;20052;-73
2022/05/07 13:54:10;;;;;;;2.88;1.17;;;;;;;;;;5049185;28;20049;-72
2022/05/07 13:56:35;;;;;;;3.08;1.30;;;;;;;;;;5047086;28;20028;-73
2022/05/07 13:59:01;;;;;;;1.52;1.00;;;;;;;;;;5052088;28;20021;-72
2022/05/07 14:01:27;;;;;;;1.85;0.90;;;;;;;;;;5050566;28;20457;-72
2022/05/07 14:03:53;;;;;;;1.75;1.30;;;;;;;;;;5051093;28;20024;-70
2022/05/07 14:06:19;;;;;;;1.73;1.00;;;;;;;;;;5045467;28;20022;-69
2022/05/07 14:08:46;;;;;;;2.05;1.27;;;;;;;;;;5050938;28;20078;-72
2022/05/07 14:11:12;;;;;;;1.75;1.10;;;;;;;;;;5052019;28;20025;-75
2022/05/07 14:13:37;;;;;;;2.03;1.10;;;;;;;;;;5051343;28;20108;-71
2022/05/07 14:16:03;;;;;;;2.67;1.13;;;;;;;;;;5050524;28;20505;-70
2022/05/07 14:18:29;;;;;;;3.90;0.98;;;;;;;;;;5051852;28;20029;-71
2022/05/07 14:20:56;;;;;;;2.53;1.00;;;;;;;;;;5051922;28;20049;-72
2022/05/07 14:23:21;;;;;;;3.03;1.10;;;;;;;;;;5051339;28;20032;-71
2022/05/07 14:25:47;;;;;;;1.48;0.93;;;;;;;;;;5051275;28;20292;-72
2022/05/07 14:28:13;;;;;;;1.58;1.00;;;;;;;;;;5051672;28;20056;-70
2022/05/07 14:30:38;;;;;;;3.65;1.23;;;;;;;;;;5050979;28;20029;-69
2022/05/07 14:33:07;;;;;;;2.15;0.82;;;;;;;;;;5051176;28;20044;-71
2022/05/07 14:35:32;;;;;;;2.30;1.00;;;;;;;;;;5052875;28;20017;-70
2022/05/07 14:37:58;;;;;;;1.80;0.93;;;;;;;;;;5051290;28;20029;-70
2022/05/07 14:40:31;;;;;;;3.25;1.00;;;;;;;;;;5051218;28;20079;-71
2022/05/07 14:42:59;;;;;;;1.50;1.00;;;;;;;;;;5051159;28;20044;-70
2022/05/07 14:45:25;;;;;;;4.47;1.05;;;;;;;;;;5050587;28;20120;-70
2022/05/07 14:47:50;;;;;;;1.40;0.90;;;;;;;;;;5051317;28;20104;-70
2022/05/07 14:50:16;;;;;;;2.63;0.88;;;;;;;;;;5040150;28;20188;-70
2022/05/07 14:52:41;;;;;;;4.18;1.08;;;;;;;;;;5047392;28;20432;-70
2022/05/07 14:55:08;;;;;;;3.13;1.02;;;;;;;;;;5051433;28;20090;-70
2022/05/07 14:57:33;;;;;;;2.22;0.93;;;;;;;;;;5035593;28;20479;-71
2022/05/07 14:59:58;;;;;;;3.25;0.90;;;;;;;;;;5049432;28;20104;-69
2022/05/07 15:02:24;;;;;;;1.60;0.93;;;;;;;;;;5049360;28;20032;-69
2022/05/07 15:04:49;;;;;;;2.55;1.15;;;;;;;;;;5050953;28;20124;-71
2022/05/07 15:07:15;;;;;;;1.98;0.93;;;;;;;;;;5050200;28;20082;-71
2022/05/07 15:12:25;;;;;;;2.40;0.88;;;;;;;;;;5050938;28;20075;-69
2022/05/07 15:14:50;;;;;;;2.08;0.98;;;;;;;;;;5032327;28;20504;-73
2022/05/07 15:17:17;;;;;;;3.83;1.00;;;;;;;;;;5049420;28;20024;-70
2022/05/07 15:19:43;;;;;;;2.22;0.90;;;;;;;;;;5050544;28;20024;-71
2022/05/07 15:22:08;;;;;;;1.40;0.93;;;;;;;;;;5051046;28;20082;-72
2022/05/07 15:24:34;;;;;;;1.35;0.88;;;;;;;;;;5050751;28;20036;-72
2022/05/07 15:26:59;;;;;;;1.20;0.70;;;;;;;;;;5050707;28;20025;-71
2022/05/07 15:29:25;;;;;;;1.42;0.75;;;;;;;;;;5046617;28;20040;-69
2022/05/07 15:37:19;;;;;;;2.50;1.00;;;;;;;;;;5049879;28;20587;-71